Etusivu
METAR-TAF:

METAR-TAF

Lentoasemat :

Clines Corners, New Mexico, Yhdysvallat

Leveyspiiri: 35-00N, Pituuspiiri: 105-40W, korkeus merenpinnasta: 2160 m

Tämänhetkinen sää

Tämä raportti tehtiin 31 minuuttia sitten, kello 16.53 UTC
Tuuli 15 kn luoteesta puuskistuen 26 kn:hen
Lämpötila 27°C
Kosteus 16%
Ilmanpaine 1021 hPa
Näkyvyys: 16.1 km
selkeää

METAR: KCQC 201653Z AUTO 31015G26KT 10SM CLR 27/M01 A3014 RMK AO2 PK WND 31026/1645 SLP098 T02671011

Aika: 11:24 (17:24 UTC)


TAF: puuttuu

Säähavainnot ja -ennusteet yli 4000 lentoasemalta (METAR- ja TAF-raportit).

Käytössä olevat sääasemat on merkitty karttaan keltaisilla ja punaisilla pisteillä.

Aseta hiiri pisteen päälle nähdäksesi sääaseman nimen.

Klikkaa sitten nähdäksesi säähavainnot ja -ennusteet.

Kartan vaihtaminen: klikkaa mustalla rastilla varustettuja vihreitä pisteitä, niin voit zoomata sisään; viivalla varustettua vihreää pistettä, niin voit zoomata ulos tai vihreitä nuolia, niin pääset viereisille kartoille.


METAR-TAF: